Navigator Of The Seas — C6FU4 — position and weather

sailwx.info

Track history (hours):
 
Tides and Currents Weather Stations Pressure Air Temp Water Temp Dewpoint Dewpoint Depression Visibility Wind Speed Wind Dir Waves Ship Positions

Navigator Of The Seas

Operator: Royal Caribbean Cruises Ltd

Last reported at 2017-May-28 09:38 UTC. Time now 2017-May-28 12:24 UTC.
Position N 48°53' W 005°45'.

Type: Passenger vessel. MMSI: 311478000.

Date/timePositionNaut miles runAvg speedWind from/ knotsBaromVisibWave heightAir tempDewpointWater temp
2017-May-28 09:38N 48°53' W 005°45'218.1
2017-May-28 09:30N 48°54' W 005°42'816.6
2017-May-28 09:00N 48°59' W 005°31'1014.5
2017-May-28 08:18N 49°04' W 005°18'413.8
2017-May-28 07:59N 49°06' W 005°12'816.1
2017-May-28 07:30N 49°10' W 005°02'917.1
2017-May-28 07:01N 49°15' W 004°51'6378.1
2017-May-28 07:00N 49°12' W 004°42'714.7 040 / 121018.0 2.2 13.0 9.412.0
2017-May-28 06:31N 49°19' W 004°40'816.8
2017-May-28 06:01N 49°23' W 004°29'917.1
2017-May-28 05:31N 49°27' W 004°17'917.5
2017-May-28 05:01N 49°31' W 004°05'917.9
2017-May-28 04:31N 49°36' W 003°53'918.8
2017-May-28 04:01N 49°41' W 003°42'1019.9
2017-May-28 03:31N 49°46' W 003°29'1020.8
2017-May-28 03:01N 49°51' W 003°15'1121.4
2017-May-28 02:31N 49°56' W 002°60'1121.7
2017-May-28 02:00N 49°60' W 002°44'1121.4
2017-May-28 01:30N 50°03' W 002°28'1420.3
2017-May-28 00:50N 50°02' W 002°06'719.7
2017-May-28 00:30N 50°01' W 001°56'918.6
2017-May-28 00:00N 50°00' W 001°42'1017.3
2017-May-27 23:27N 49°59' W 001°27'916.5
2017-May-27 22:56N 49°58' W 001°14'715.7
2017-May-27 22:30N 49°55' W 001°04'815.8
2017-May-27 22:01N 49°51' W 000°54'816.0
2017-May-27 21:31N 49°46' W 000°44'816.2
2017-May-27 21:01N 49°41' W 000°34'816.4
2017-May-27 20:31N 49°37' W 000°23'816.2
2017-May-27 20:01N 49°33' W 000°13'714.6
2017-May-27 19:31N 49°31' W 000°02'611.4
2017-May-27 19:00N 49°29' E 000°06'0 0.1
2017-May-27 18:30N 49°29' E 000°06'0 0.0
2017-May-27 18:00N 49°29' E 000°06'0 0.0
2017-May-27 17:30N 49°29' E 000°06'0 0.0
2017-May-27 17:00N 49°29' E 000°06'0 0.0
2017-May-27 16:30N 49°29' E 000°06'0 0.0
2017-May-27 16:00N 49°29' E 000°06'0 0.0
2017-May-27 15:30N 49°29' E 000°06'0 0.0
2017-May-27 15:00N 49°29' E 000°06'0 0.0
2017-May-27 14:30N 49°29' E 000°06'0 0.0
2017-May-27 13:30N 49°29' E 000°06'0 0.0
2017-May-27 13:00N 49°29' E 000°06'0 0.0
2017-May-27 12:30N 49°29' E 000°06'0 0.0
2017-May-27 12:00N 49°29' E 000°06'0 0.0
2017-May-27 11:30N 49°29' E 000°06'0 0.0
2017-May-27 11:00N 49°29' E 000°06'0 0.0
2017-May-27 10:30N 49°29' E 000°06'0 0.0
2017-May-27 10:00N 49°29' E 000°06'0 0.0
2017-May-27 09:30N 49°29' E 000°06'0 0.0
2017-May-27 09:00N 49°29' E 000°06'0 0.0
2017-May-27 08:30N 49°29' E 000°06'0 0.0
2017-May-27 08:00N 49°29' E 000°06'0 0.0
2017-May-27 07:30N 49°29' E 000°06'0 0.0
2017-May-27 07:00N 49°29' E 000°06'0 0.0
2017-May-27 06:30N 49°29' E 000°06'0 0.0
2017-May-27 06:00N 49°29' E 000°06'0 0.0
2017-May-27 05:30N 49°29' E 000°06'0 0.0
2017-May-27 05:00N 49°29' E 000°06'0 0.9
2017-May-27 04:31N 49°29' E 000°07'2 3.7
2017-May-27 04:00N 49°29' E 000°04'713.2
2017-May-27 03:30N 49°31' W 000°05'5 9.9
2017-May-27 03:00N 49°33' W 000°12'4 7.4
2017-May-27 02:30N 49°34' W 000°18'4 8.8
2017-May-27 02:00N 49°38' W 000°22'4 8.9
2017-May-27 01:30N 49°41' W 000°26'4 8.9
2017-May-27 01:00N 49°44' W 000°31'4 8.6
2017-May-27 00:30N 49°47' W 000°36'4 8.6
2017-May-27 00:00N 49°51' W 000°40'4 8.3
2017-May-26 23:30N 49°54' W 000°44'5 9.1
2017-May-26 23:00N 49°57' W 000°49'5 9.5
2017-May-26 22:30N 50°00' W 000°55'510.3
2017-May-26 22:00N 50°06' W 000°56'15 9.8
2017-May-26 20:30N 50°20' W 001°00'5 9.2
2017-May-26 20:00N 50°24' W 001°01'4 9.0
2017-May-26 19:30N 50°29' W 000°60'5 9.5
2017-May-26 19:00N 50°34' W 000°59'510.0
2017-May-26 18:31N 50°39' W 000°59'4 8.5
2017-May-26 18:00N 50°43' W 000°60'713.5
2017-May-26 17:30N 50°46' W 001°09'612.6
2017-May-26 17:00N 50°47' W 001°19'5 9.3
2017-May-26 16:30N 50°52' W 001°21'3 6.2
2017-May-26 15:59N 50°54' W 001°25'0 0.0
2017-May-26 15:29N 50°54' W 001°25'0 0.0
2017-May-26 14:59N 50°54' W 001°25'0 0.0
2017-May-26 13:59N 50°54' W 001°25'0 0.0
2017-May-26 13:29N 50°54' W 001°25'0 0.0
2017-May-26 12:59N 50°54' W 001°25'0 0.0
2017-May-26 12:29N 50°54' W 001°25'0 0.0
2017-May-26 11:59N 50°54' W 001°25'0 0.0
2017-May-26 11:29N 50°54' W 001°25'0 0.0
2017-May-26 10:59N 50°54' W 001°25'0 0.0
2017-May-26 10:26N 50°54' W 001°25'0 0.0
2017-May-26 09:59N 50°54' W 001°25'0 0.0
2017-May-26 09:29N 50°54' W 001°25'0 0.0
2017-May-26 08:59N 50°54' W 001°25'0 0.0
2017-May-26 08:29N 50°54' W 001°25'0 0.0
2017-May-26 07:59N 50°54' W 001°25'0 0.0
2017-May-26 07:26N 50°54' W 001°25'0 0.0
2017-May-26 06:59N 50°54' W 001°25'0 0.0
2017-May-26 06:29N 50°54' W 001°25'0 0.0
2017-May-26 05:59N 50°54' W 001°25'0 0.0
2017-May-26 05:29N 50°54' W 001°25'0 0.0
2017-May-26 04:59N 50°54' W 001°25'0 0.0
2017-May-26 04:26N 50°54' W 001°25'0 0.1
2017-May-26 04:00N 50°54' W 001°25'2 3.7
2017-May-26 03:30N 50°52' W 001°23'5 9.9
2017-May-26 03:01N 50°49' W 001°18'5 9.5
2017-May-26 02:30N 50°46' W 001°12'917.0
2017-May-26 02:01N 50°43' W 000°59'611.9
2017-May-26 01:30N 50°37' W 000°59'815.6
2017-May-26 01:00N 50°31' W 001°07'816.4
2017-May-26 00:30N 50°29' W 001°19'1017.3
2017-May-25 23:56N 50°25' W 001°34'816.0
2017-May-25 23:27N 50°23' W 001°45'1316.6
2017-May-25 22:40N 50°18' W 002°04'516.9
2017-May-25 22:24N 50°17' W 002°11'717.1
2017-May-25 22:00N 50°15' W 002°22'1917.7
2017-May-25 20:56N 50°09' W 002°49'817.9
2017-May-25 20:29N 50°06' W 003°01'918.1
2017-May-25 20:00N 50°04' W 003°14'918.7
2017-May-25 19:30N 49°58' W 003°25'919.0
2017-May-25 19:00N 49°51' W 003°36'918.9
2017-May-25 18:30N 49°45' W 003°47'918.9
2017-May-25 18:00N 49°39' W 003°59'918.9
2017-May-25 17:30N 49°33' W 004°10'918.7
2017-May-25 17:00N 49°27' W 004°21'1019.2
2017-May-25 16:30N 49°20' W 004°31'1019.4
2017-May-25 16:00N 49°14' W 004°43'231437.9
2017-May-25 16:00N 49°12' W 005°18'1211.7 090 / 261018.010.8 14.014.014.0
2017-May-25 14:56N 49°02' W 005°08'1415.4
2017-May-25 14:00N 48°53' W 005°25'815.4
2017-May-25 13:30N 48°48' W 005°35'5218.2
2017-May-25 10:39N 48°02' W 006°10'1818.2
2017-May-25 09:38N 47°46' W 006°24'47618.4
2017-May-24 07:46N 40°14' W 009°50'519.6
2017-May-24 07:30N 40°09' W 009°50'1019.6
2017-May-24 07:00N 39°59' W 009°51'1019.5
2017-May-24 06:30N 39°49' W 009°51'1019.5
2017-May-24 06:00N 39°39' W 009°52'1019.6
2017-May-24 05:31N 39°30' W 009°51'1019.5
2017-May-24 05:00N 39°20' W 009°52'5312.3
2017-May-24 05:00N 39°24' W 009°48'1429.2 110 / 51015.0 2.2 18.014.817.0
2017-May-24 04:31N 39°10' W 009°52'1019.5
2017-May-24 04:00N 39°00' W 009°52'1019.1
2017-May-24 03:30N 38°51' W 009°52'919.0
2017-May-24 03:00N 38°41' W 009°51'1019.4
2017-May-24 02:30N 38°32' W 009°48'1019.7
2017-May-24 02:00N 38°22' W 009°46'1019.9
2017-May-24 01:30N 38°13' W 009°43'1019.9
2017-May-24 01:00N 38°03' W 009°40'1019.8
2017-May-24 00:30N 37°53' W 009°37'1019.7
2017-May-24 00:00N 37°44' W 009°34'1019.8
2017-May-23 23:30N 37°34' W 009°31'1019.7
2017-May-23 23:00N 37°25' W 009°28'1019.5
2017-May-23 22:30N 37°15' W 009°25'1019.5
2017-May-23 22:00N 37°06' W 009°22'1019.4
2017-May-23 21:30N 36°56' W 009°20'918.8
2017-May-23 21:00N 36°48' W 009°15'1019.1
2017-May-23 20:30N 36°44' W 009°04'1019.0
2017-May-23 20:00N 36°42' W 008°53'1519.3
2017-May-23 19:13N 36°40' W 008°33'419.0
2017-May-23 19:00N 36°40' W 008°28'1019.0
2017-May-23 18:29N 36°39' W 008°16'145 7.2
2017-May-22 22:16N 36°01' W 005°23'312.7
2017-May-22 22:01N 36°01' W 005°19'612.8
2017-May-22 21:31N 36°03' W 005°11'713.0
2017-May-22 20:59N 36°05' W 005°03'203 8.9
2017-May-21 22:18N 37°11' W 001°05'1718.9
2017-May-21 21:24N 37°23' W 000°49'820.5
2017-May-21 21:00N 37°29' W 000°42'1020.3
2017-May-21 20:30N 37°36' W 000°32'1020.2
2017-May-21 20:00N 37°44' W 000°26'1019.7
2017-May-21 19:30N 37°52' W 000°19'918.4
2017-May-21 19:00N 38°00' W 000°12'918.5
2017-May-21 18:30N 38°08' W 000°06'7215.0
2017-May-21 13:41N 39°20' W 000°10'419.1
2017-May-21 13:28N 39°23' W 000°13'511.4
2017-May-21 13:01N 39°27' W 000°18'0 0.6
2017-May-21 12:29N 39°28' W 000°18'0 0.0
2017-May-21 11:59N 39°28' W 000°18'0 0.0
2017-May-21 11:29N 39°28' W 000°18'0 0.0
2017-May-21 10:59N 39°28' W 000°18'0 0.0
2017-May-21 10:29N 39°28' W 000°18'0 0.0
2017-May-21 09:59N 39°28' W 000°18'0 0.0
2017-May-21 09:29N 39°28' W 000°18'0 0.0
2017-May-21 08:59N 39°28' W 000°18'0 0.0
2017-May-21 08:29N 39°28' W 000°18'0 0.0
2017-May-21 07:59N 39°28' W 000°18'0 0.0
2017-May-21 07:29N 39°28' W 000°18'0 0.0
2017-May-21 06:53N 39°28' W 000°18'0 0.0
2017-May-21 06:29N 39°28' W 000°18'0 0.0
2017-May-21 05:59N 39°28' W 000°18'0 0.0
2017-May-21 05:29N 39°28' W 000°18'0 0.0
2017-May-21 04:59N 39°28' W 000°18'1 1.2
2017-May-21 04:31N 39°27' W 000°18'2 3.7
2017-May-21 04:01N 39°26' W 000°16'713.5
2017-May-21 03:30N 39°31' W 000°10'8916.5
2017-May-20 22:07N 40°31' E 001°15'317.4
2017-May-20 21:56N 40°33' E 001°19'817.7
2017-May-20 21:30N 40°38' E 001°26'918.0
2017-May-20 21:00N 40°44' E 001°35'918.2
2017-May-20 20:30N 40°50' E 001°44'918.5
2017-May-20 20:00N 40°57' E 001°53'918.3
2017-May-20 19:30N 41°03' E 002°01'918.4
2017-May-20 19:00N 41°11' E 002°07'815.6
2017-May-20 18:29N 41°19' E 002°10'3 2.9
2017-May-20 17:34N 41°22' E 002°11'0 0.0
2017-May-20 17:16N 41°22' E 002°11'0 0.0
2017-May-20 16:58N 41°22' E 002°11'0 0.0
2017-May-20 09:34N 41°22' E 002°11'0 0.0
2017-May-20 09:04N 41°22' E 002°11'0 0.0
2017-May-20 08:28N 41°22' E 002°11'0 0.2
2017-May-20 07:58N 41°22' E 002°11'1 2.0
2017-May-20 07:28N 41°21' E 002°10'4713.4
2017-May-20 04:00N 41°24' E 003°12'21218.3 050 / 151022.0 5.4 16.014.417.0
2017-May-19 16:24N 41°47' E 007°53'718.0
2017-May-19 15:59N 41°47' E 008°03'917.7
2017-May-19 15:28N 41°47' E 008°16'817.7
2017-May-19 15:00N 41°48' E 008°27'917.8
2017-May-19 14:30N 41°51' E 008°38'7 1.0
2017-May-19 07:55N 41°55' E 008°45'0 0.0
2017-May-19 07:30N 41°55' E 008°45'2 3.3
2017-May-19 06:53N 41°53' E 008°45'51 9.9
2017-May-19 01:47N 41°29' E 009°44'717.8
2017-May-19 01:22N 41°32' E 009°53'717.8
2017-May-19 01:00N 41°34' E 010°01'917.9
2017-May-19 00:30N 41°38' E 010°12'2518.3
2017-May-18 23:07N 41°47' E 010°43'918.5
2017-May-18 22:39N 41°51' E 010°54'318.5
2017-May-18 22:30N 41°52' E 010°58'1118.9
2017-May-18 21:57N 41°55' E 011°11'716.3
2017-May-18 21:30N 41°58' E 011°20'814.5
2017-May-18 20:59N 42°01' E 011°29'814.7
2017-May-18 20:28N 42°04' E 011°39'611.1
2017-May-18 19:57N 42°07' E 011°46'  
Track history (hours):
 
Tides and Currents Weather Stations Pressure Air Temp Water Temp Dewpoint Dewpoint Depression Visibility Wind Speed Wind Dir Waves Ship Positions

Navigator Of The Seas

Operator: Royal Caribbean Cruises Ltd

Last reported at 2017-May-28 09:38 UTC. Time now 2017-May-28 12:24 UTC.
Position N 48°53' W 005°45'.

Type: Passenger vessel. MMSI: 311478000.

Date/timePositionNaut miles runAvg speedWind from/ knotsBaromVisibWave heightAir tempDewpointWater temp
2017-May-28 09:38N 48°53' W 005°45'218.1
2017-May-28 09:30N 48°54' W 005°42'816.6
2017-May-28 09:00N 48°59' W 005°31'1014.5
2017-May-28 08:18N 49°04' W 005°18'413.8
2017-May-28 07:59N 49°06' W 005°12'816.1
2017-May-28 07:30N 49°10' W 005°02'917.1
2017-May-28 07:01N 49°15' W 004°51'6378.1
2017-May-28 07:00N 49°12' W 004°42'714.7 040 / 121018.0 2.2 13.0 9.412.0
2017-May-28 06:31N 49°19' W 004°40'816.8
2017-May-28 06:01N 49°23' W 004°29'917.1
2017-May-28 05:31N 49°27' W 004°17'917.5
2017-May-28 05:01N 49°31' W 004°05'917.9
2017-May-28 04:31N 49°36' W 003°53'918.8
2017-May-28 04:01N 49°41' W 003°42'1019.9
2017-May-28 03:31N 49°46' W 003°29'1020.8
2017-May-28 03:01N 49°51' W 003°15'1121.4
2017-May-28 02:31N 49°56' W 002°60'1121.7
2017-May-28 02:00N 49°60' W 002°44'1121.4
2017-May-28 01:30N 50°03' W 002°28'1420.3
2017-May-28 00:50N 50°02' W 002°06'719.7
2017-May-28 00:30N 50°01' W 001°56'918.6
2017-May-28 00:00N 50°00' W 001°42'1017.3
2017-May-27 23:27N 49°59' W 001°27'916.5
2017-May-27 22:56N 49°58' W 001°14'715.7
2017-May-27 22:30N 49°55' W 001°04'815.8
2017-May-27 22:01N 49°51' W 000°54'816.0
2017-May-27 21:31N 49°46' W 000°44'816.2
2017-May-27 21:01N 49°41' W 000°34'816.4
2017-May-27 20:31N 49°37' W 000°23'816.2
2017-May-27 20:01N 49°33' W 000°13'714.6
2017-May-27 19:31N 49°31' W 000°02'611.4
2017-May-27 19:00N 49°29' E 000°06'0 0.1
2017-May-27 18:30N 49°29' E 000°06'0 0.0
2017-May-27 18:00N 49°29' E 000°06'0 0.0
2017-May-27 17:30N 49°29' E 000°06'0 0.0
2017-May-27 17:00N 49°29' E 000°06'0 0.0
2017-May-27 16:30N 49°29' E 000°06'0 0.0
2017-May-27 16:00N 49°29' E 000°06'0 0.0
2017-May-27 15:30N 49°29' E 000°06'0 0.0
2017-May-27 15:00N 49°29' E 000°06'0 0.0
2017-May-27 14:30N 49°29' E 000°06'0 0.0
2017-May-27 13:30N 49°29' E 000°06'0 0.0
2017-May-27 13:00N 49°29' E 000°06'0 0.0
2017-May-27 12:30N 49°29' E 000°06'0 0.0
2017-May-27 12:00N 49°29' E 000°06'0 0.0
2017-May-27 11:30N 49°29' E 000°06'0 0.0
2017-May-27 11:00N 49°29' E 000°06'0 0.0
2017-May-27 10:30N 49°29' E 000°06'0 0.0
2017-May-27 10:00N 49°29' E 000°06'0 0.0
2017-May-27 09:30N 49°29' E 000°06'0 0.0
2017-May-27 09:00N 49°29' E 000°06'0 0.0
2017-May-27 08:30N 49°29' E 000°06'0 0.0
2017-May-27 08:00N 49°29' E 000°06'0 0.0
2017-May-27 07:30N 49°29' E 000°06'0 0.0
2017-May-27 07:00N 49°29' E 000°06'0 0.0
2017-May-27 06:30N 49°29' E 000°06'0 0.0
2017-May-27 06:00N 49°29' E 000°06'0 0.0
2017-May-27 05:30N 49°29' E 000°06'0 0.0
2017-May-27 05:00N 49°29' E 000°06'0 0.9
2017-May-27 04:31N 49°29' E 000°07'2 3.7
2017-May-27 04:00N 49°29' E 000°04'713.2
2017-May-27 03:30N 49°31' W 000°05'5 9.9
2017-May-27 03:00N 49°33' W 000°12'4 7.4
2017-May-27 02:30N 49°34' W 000°18'4 8.8
2017-May-27 02:00N 49°38' W 000°22'4 8.9
2017-May-27 01:30N 49°41' W 000°26'4 8.9
2017-May-27 01:00N 49°44' W 000°31'4 8.6
2017-May-27 00:30N 49°47' W 000°36'4 8.6
2017-May-27 00:00N 49°51' W 000°40'4 8.3
2017-May-26 23:30N 49°54' W 000°44'5 9.1
2017-May-26 23:00N 49°57' W 000°49'5 9.5
2017-May-26 22:30N 50°00' W 000°55'510.3
2017-May-26 22:00N 50°06' W 000°56'15 9.8
2017-May-26 20:30N 50°20' W 001°00'5 9.2
2017-May-26 20:00N 50°24' W 001°01'4 9.0
2017-May-26 19:30N 50°29' W 000°60'5 9.5
2017-May-26 19:00N 50°34' W 000°59'510.0
2017-May-26 18:31N 50°39' W 000°59'4 8.5
2017-May-26 18:00N 50°43' W 000°60'713.5
2017-May-26 17:30N 50°46' W 001°09'612.6
2017-May-26 17:00N 50°47' W 001°19'5 9.3
2017-May-26 16:30N 50°52' W 001°21'3 6.2
2017-May-26 15:59N 50°54' W 001°25'0 0.0
2017-May-26 15:29N 50°54' W 001°25'0 0.0
2017-May-26 14:59N 50°54' W 001°25'0 0.0
2017-May-26 13:59N 50°54' W 001°25'0 0.0
2017-May-26 13:29N 50°54' W 001°25'0 0.0
2017-May-26 12:59N 50°54' W 001°25'0 0.0
2017-May-26 12:29N 50°54' W 001°25'0 0.0
2017-May-26 11:59N 50°54' W 001°25'0 0.0
2017-May-26 11:29N 50°54' W 001°25'0 0.0
2017-May-26 10:59N 50°54' W 001°25'0 0.0
2017-May-26 10:26N 50°54' W 001°25'0 0.0
2017-May-26 09:59N 50°54' W 001°25'0 0.0
2017-May-26 09:29N 50°54' W 001°25'0 0.0
2017-May-26 08:59N 50°54' W 001°25'0 0.0
2017-May-26 08:29N 50°54' W 001°25'0 0.0
2017-May-26 07:59N 50°54' W 001°25'0 0.0
2017-May-26 07:26N 50°54' W 001°25'0 0.0
2017-May-26 06:59N 50°54' W 001°25'0 0.0
2017-May-26 06:29N 50°54' W 001°25'0 0.0
2017-May-26 05:59N 50°54' W 001°25'0 0.0
2017-May-26 05:29N 50°54' W 001°25'0 0.0
2017-May-26 04:59N 50°54' W 001°25'0 0.0
2017-May-26 04:26N 50°54' W 001°25'0 0.1
2017-May-26 04:00N 50°54' W 001°25'2 3.7
2017-May-26 03:30N 50°52' W 001°23'5 9.9
2017-May-26 03:01N 50°49' W 001°18'5 9.5
2017-May-26 02:30N 50°46' W 001°12'917.0
2017-May-26 02:01N 50°43' W 000°59'611.9
2017-May-26 01:30N 50°37' W 000°59'815.6
2017-May-26 01:00N 50°31' W 001°07'816.4
2017-May-26 00:30N 50°29' W 001°19'1017.3
2017-May-25 23:56N 50°25' W 001°34'816.0
2017-May-25 23:27N 50°23' W 001°45'1316.6
2017-May-25 22:40N 50°18' W 002°04'516.9
2017-May-25 22:24N 50°17' W 002°11'717.1
2017-May-25 22:00N 50°15' W 002°22'1917.7
2017-May-25 20:56N 50°09' W 002°49'817.9
2017-May-25 20:29N 50°06' W 003°01'918.1
2017-May-25 20:00N 50°04' W 003°14'918.7
2017-May-25 19:30N 49°58' W 003°25'919.0
2017-May-25 19:00N 49°51' W 003°36'918.9
2017-May-25 18:30N 49°45' W 003°47'918.9
2017-May-25 18:00N 49°39' W 003°59'918.9
2017-May-25 17:30N 49°33' W 004°10'918.7
2017-May-25 17:00N 49°27' W 004°21'1019.2
2017-May-25 16:30N 49°20' W 004°31'1019.4
2017-May-25 16:00N 49°14' W 004°43'231437.9
2017-May-25 16:00N 49°12' W 005°18'1211.7 090 / 261018.010.8 14.014.014.0
2017-May-25 14:56N 49°02' W 005°08'1415.4
2017-May-25 14:00N 48°53' W 005°25'815.4
2017-May-25 13:30N 48°48' W 005°35'5218.2
2017-May-25 10:39N 48°02' W 006°10'1818.2
2017-May-25 09:38N 47°46' W 006°24'47618.4
2017-May-24 07:46N 40°14' W 009°50'519.6
2017-May-24 07:30N 40°09' W 009°50'1019.6
2017-May-24 07:00N 39°59' W 009°51'1019.5
2017-May-24 06:30N 39°49' W 009°51'1019.5
2017-May-24 06:00N 39°39' W 009°52'1019.6
2017-May-24 05:31N 39°30' W 009°51'1019.5
2017-May-24 05:00N 39°20' W 009°52'5312.3
2017-May-24 05:00N 39°24' W 009°48'1429.2 110 / 51015.0 2.2 18.014.817.0
2017-May-24 04:31N 39°10' W 009°52'1019.5
2017-May-24 04:00N 39°00' W 009°52'1019.1
2017-May-24 03:30N 38°51' W 009°52'919.0
2017-May-24 03:00N 38°41' W 009°51'1019.4
2017-May-24 02:30N 38°32' W 009°48'1019.7
2017-May-24 02:00N 38°22' W 009°46'1019.9
2017-May-24 01:30N 38°13' W 009°43'1019.9
2017-May-24 01:00N 38°03' W 009°40'1019.8
2017-May-24 00:30N 37°53' W 009°37'1019.7
2017-May-24 00:00N 37°44' W 009°34'1019.8
2017-May-23 23:30N 37°34' W 009°31'1019.7
2017-May-23 23:00N 37°25' W 009°28'1019.5
2017-May-23 22:30N 37°15' W 009°25'1019.5
2017-May-23 22:00N 37°06' W 009°22'1019.4
2017-May-23 21:30N 36°56' W 009°20'918.8
2017-May-23 21:00N 36°48' W 009°15'1019.1
2017-May-23 20:30N 36°44' W 009°04'1019.0
2017-May-23 20:00N 36°42' W 008°53'1519.3
2017-May-23 19:13N 36°40' W 008°33'419.0
2017-May-23 19:00N 36°40' W 008°28'1019.0
2017-May-23 18:29N 36°39' W 008°16'145 7.2
2017-May-22 22:16N 36°01' W 005°23'312.7
2017-May-22 22:01N 36°01' W 005°19'612.8
2017-May-22 21:31N 36°03' W 005°11'713.0
2017-May-22 20:59N 36°05' W 005°03'203 8.9
2017-May-21 22:18N 37°11' W 001°05'1718.9
2017-May-21 21:24N 37°23' W 000°49'820.5
2017-May-21 21:00N 37°29' W 000°42'1020.3
2017-May-21 20:30N 37°36' W 000°32'1020.2
2017-May-21 20:00N 37°44' W 000°26'1019.7
2017-May-21 19:30N 37°52' W 000°19'918.4
2017-May-21 19:00N 38°00' W 000°12'918.5
2017-May-21 18:30N 38°08' W 000°06'7215.0
2017-May-21 13:41N 39°20' W 000°10'419.1
2017-May-21 13:28N 39°23' W 000°13'511.4
2017-May-21 13:01N 39°27' W 000°18'0 0.6
2017-May-21 12:29N 39°28' W 000°18'0 0.0
2017-May-21 11:59N 39°28' W 000°18'0 0.0
2017-May-21 11:29N 39°28' W 000°18'0 0.0
2017-May-21 10:59N 39°28' W 000°18'0 0.0
2017-May-21 10:29N 39°28' W 000°18'0 0.0
2017-May-21 09:59N 39°28' W 000°18'0 0.0
2017-May-21 09:29N 39°28' W 000°18'0 0.0
2017-May-21 08:59N 39°28' W 000°18'0 0.0
2017-May-21 08:29N 39°28' W 000°18'0 0.0
2017-May-21 07:59N 39°28' W 000°18'0 0.0
2017-May-21 07:29N 39°28' W 000°18'0 0.0
2017-May-21 06:53N 39°28' W 000°18'0 0.0
2017-May-21 06:29N 39°28' W 000°18'0 0.0
2017-May-21 05:59N 39°28' W 000°18'0 0.0
2017-May-21 05:29N 39°28' W 000°18'0 0.0
2017-May-21 04:59N 39°28' W 000°18'1 1.2
2017-May-21 04:31N 39°27' W 000°18'2 3.7
2017-May-21 04:01N 39°26' W 000°16'713.5
2017-May-21 03:30N 39°31' W 000°10'8916.5
2017-May-20 22:07N 40°31' E 001°15'317.4
2017-May-20 21:56N 40°33' E 001°19'817.7
2017-May-20 21:30N 40°38' E 001°26'918.0
2017-May-20 21:00N 40°44' E 001°35'918.2
2017-May-20 20:30N 40°50' E 001°44'918.5
2017-May-20 20:00N 40°57' E 001°53'918.3
2017-May-20 19:30N 41°03' E 002°01'918.4
2017-May-20 19:00N 41°11' E 002°07'815.6
2017-May-20 18:29N 41°19' E 002°10'3 2.9
2017-May-20 17:34N 41°22' E 002°11'0 0.0
2017-May-20 17:16N 41°22' E 002°11'0 0.0
2017-May-20 16:58N 41°22' E 002°11'0 0.0
2017-May-20 09:34N 41°22' E 002°11'0 0.0
2017-May-20 09:04N 41°22' E 002°11'0 0.0
2017-May-20 08:28N 41°22' E 002°11'0 0.2
2017-May-20 07:58N 41°22' E 002°11'1 2.0
2017-May-20 07:28N 41°21' E 002°10'4713.4
2017-May-20 04:00N 41°24' E 003°12'21218.3 050 / 151022.0 5.4 16.014.417.0
2017-May-19 16:24N 41°47' E 007°53'718.0
2017-May-19 15:59N 41°47' E 008°03'917.7
2017-May-19 15:28N 41°47' E 008°16'817.7
2017-May-19 15:00N 41°48' E 008°27'917.8
2017-May-19 14:30N 41°51' E 008°38'7 1.0
2017-May-19 07:55N 41°55' E 008°45'0 0.0
2017-May-19 07:30N 41°55' E 008°45'2 3.3
2017-May-19 06:53N 41°53' E 008°45'51 9.9
2017-May-19 01:47N 41°29' E 009°44'717.8
2017-May-19 01:22N 41°32' E 009°53'717.8
2017-May-19 01:00N 41°34' E 010°01'917.9
2017-May-19 00:30N 41°38' E 010°12'2518.3
2017-May-18 23:07N 41°47' E 010°43'918.5
2017-May-18 22:39N 41°51' E 010°54'318.5
2017-May-18 22:30N 41°52' E 010°58'1118.9
2017-May-18 21:57N 41°55' E 011°11'716.3
2017-May-18 21:30N 41°58' E 011°20'814.5
2017-May-18 20:59N 42°01' E 011°29'814.7
2017-May-18 20:28N 42°04' E 011°39'611.1
2017-May-18 19:57N 42°07' E 011°46'  

Dump ship's entire track history